Augusta, New Jersey
Current Conditions -  °F | °C
As of 6:07 AM on Thursday 23 Oct 2014 (Local Time) from KFWN Reporting Station
Light Rain Light Rain  
Wind Chill: 12°   Ceiling: 2900
Heat Index: 12°   Visibility: 10mi
Dew Point:   Wind: 7mph
Humidity: 77%   Direction: 330°NNW
Pressure: 29.76"   Gusts: NA
Location:  41.13°N, 74.73°W
Report Text: KFWN 231007Z AUTO 33006KT 10SM -RA OVC029 12/08 A2976 RMK AO2 P0000 T01170078
Loading
Personal Weather Stations






























Interactive Weather Map
Tropical Storm Tracking
New forecast layout! Learn more

10-Day Weather Forecast

Advertisements
Track Severe Weather on mobile